sensor_id;sensor_type;location;lat;lon;timestamp;P1;durP1;ratioP1;P2;durP2;ratioP2
23472;SDS011;11909;52.516;13.564;2022-11-15T00:01:52;52.85;;;31.48;;
23472;SDS011;11909;52.516;13.564;2022-11-15T00:04:18;47.00;;;29.10;;
23472;SDS011;11909;52.516;13.564;2022-11-15T00:06:45;47.72;;;30.95;;
23472;SDS011;11909;52.516;13.564;2022-11-15T00:09:11;43.60;;;29.38;;
23472;SDS011;11909;52.516;13.564;2022-11-15T00:11:38;46.67;;;29.70;;
23472;SDS011;11909;52.516;13.564;2022-11-15T00:14:06;55.10;;;33.92;;
23472;SDS011;11909;52.516;13.564;2022-11-15T00:16:32;46.90;;;28.95;;
23472;SDS011;11909;52.516;13.564;2022-11-15T00:18:59;52.47;;;30.85;;
23472;SDS011;11909;52.516;13.564;2022-11-15T00:21:26;52.08;;;31.73;;
23472;SDS011;11909;52.516;13.564;2022-11-15T00:23:52;46.35;;;29.52;;
23472;SDS011;11909;52.516;13.564;2022-11-15T00:26:19;49.80;;;30.35;;
23472;SDS011;11909;52.516;13.564;2022-11-15T00:28:45;53.45;;;32.85;;
23472;SDS011;11909;52.516;13.564;2022-11-15T00:31:13;50.03;;;32.72;;
23472;SDS011;11909;52.516;13.564;2022-11-15T00:33:42;53.15;;;31.05;;
23472;SDS011;11909;52.516;13.564;2022-11-15T00:36:09;46.45;;;30.30;;
23472;SDS011;11909;52.516;13.564;2022-11-15T00:38:37;50.58;;;31.85;;
23472;SDS011;11909;52.516;13.564;2022-11-15T00:41:05;52.78;;;32.45;;
23472;SDS011;11909;52.516;13.564;2022-11-15T00:43:33;50.13;;;30.58;;
23472;SDS011;11909;52.516;13.564;2022-11-15T00:45:59;47.05;;;30.75;;
23472;SDS011;11909;52.516;13.564;2022-11-15T00:48:28;46.30;;;29.90;;
23472;SDS011;11909;52.516;13.564;2022-11-15T00:50:56;51.42;;;31.67;;
23472;SDS011;11909;52.516;13.564;2022-11-15T00:53:23;44.15;;;28.70;;
23472;SDS011;11909;52.516;13.564;2022-11-15T00:55:50;49.92;;;31.27;;
23472;SDS011;11909;52.516;13.564;2022-11-15T00:58:17;48.30;;;30.10;;
23472;SDS011;11909;52.516;13.564;2022-11-15T01:00:43;49.55;;;30.60;;
23472;SDS011;11909;52.516;13.564;2022-11-15T01:03:10;51.28;;;32.10;;
23472;SDS011;11909;52.516;13.564;2022-11-15T01:05:38;48.00;;;30.85;;
23472;SDS011;11909;52.516;13.564;2022-11-15T01:08:04;51.05;;;31.67;;
23472;SDS011;11909;52.516;13.564;2022-11-15T01:10:31;46.53;;;30.33;;
23472;SDS011;11909;52.516;13.564;2022-11-15T01:12:58;48.50;;;29.58;;
23472;SDS011;11909;52.516;13.564;2022-11-15T01:15:24;44.83;;;30.83;;
23472;SDS011;11909;52.516;13.564;2022-11-15T01:17:51;46.10;;;29.33;;
23472;SDS011;11909;52.516;13.564;2022-11-15T01:20:17;45.67;;;29.92;;
23472;SDS011;11909;52.516;13.564;2022-11-15T01:22:46;48.00;;;29.90;;
23472;SDS011;11909;52.516;13.564;2022-11-15T01:25:12;47.70;;;30.75;;
23472;SDS011;11909;52.516;13.564;2022-11-15T01:27:39;47.58;;;31.17;;
23472;SDS011;11909;52.516;13.564;2022-11-15T01:30:06;48.25;;;30.42;;
23472;SDS011;11909;52.516;13.564;2022-11-15T01:32:33;48.15;;;31.17;;
23472;SDS011;11909;52.516;13.564;2022-11-15T01:35:00;46.20;;;29.88;;
23472;SDS011;11909;52.516;13.564;2022-11-15T01:37:26;52.22;;;32.53;;
23472;SDS011;11909;52.516;13.564;2022-11-15T01:39:54;53.92;;;32.22;;
23472;SDS011;11909;52.516;13.564;2022-11-15T01:42:21;49.75;;;30.85;;
23472;SDS011;11909;52.516;13.564;2022-11-15T01:44:48;48.50;;;31.73;;
23472;SDS011;11909;52.516;13.564;2022-11-15T01:47:16;47.35;;;30.13;;
23472;SDS011;11909;52.516;13.564;2022-11-15T01:49:48;43.95;;;30.90;;
23472;SDS011;11909;52.516;13.564;2022-11-15T01:52:19;52.25;;;31.63;;
23472;SDS011;11909;52.516;13.564;2022-11-15T01:54:48;48.53;;;31.33;;
23472;SDS011;11909;52.516;13.564;2022-11-15T01:59:46;51.22;;;31.92;;
23472;SDS011;11909;52.516;13.564;2022-11-15T02:02:13;47.50;;;30.13;;
23472;SDS011;11909;52.516;13.564;2022-11-15T02:04:41;49.10;;;30.13;;
23472;SDS011;11909;52.516;13.564;2022-11-15T02:07:08;48.38;;;31.63;;
23472;SDS011;11909;52.516;13.564;2022-11-15T02:09:37;48.63;;;30.15;;
23472;SDS011;11909;52.516;13.564;2022-11-15T02:12:05;53.55;;;31.50;;
23472;SDS011;11909;52.516;13.564;2022-11-15T02:14:37;51.85;;;31.50;;
23472;SDS011;11909;52.516;13.564;2022-11-15T02:17:08;45.20;;;29.48;;
23472;SDS011;11909;52.516;13.564;2022-11-15T02:20:03;46.42;;;29.95;;
23472;SDS011;11909;52.516;13.564;2022-11-15T02:23:05;47.42;;;30.33;;
23472;SDS011;11909;52.516;13.564;2022-11-15T02:25:52;42.80;;;29.08;;
23472;SDS011;11909;52.516;13.564;2022-11-15T02:28:38;43.15;;;27.88;;
23472;SDS011;11909;52.516;13.564;2022-11-15T02:31:13;44.28;;;28.95;;
23472;SDS011;11909;52.516;13.564;2022-11-15T02:33:50;44.78;;;29.48;;
23472;SDS011;11909;52.516;13.564;2022-11-15T02:36:27;47.15;;;29.90;;
23472;SDS011;11909;52.516;13.564;2022-11-15T02:39:02;41.05;;;27.08;;
23472;SDS011;11909;52.516;13.564;2022-11-15T02:41:37;44.75;;;29.17;;
23472;SDS011;11909;52.516;13.564;2022-11-15T02:44:07;47.15;;;29.42;;
23472;SDS011;11909;52.516;13.564;2022-11-15T02:46:41;44.28;;;28.80;;
23472;SDS011;11909;52.516;13.564;2022-11-15T02:49:31;49.50;;;29.98;;
23472;SDS011;11909;52.516;13.564;2022-11-15T02:51:59;51.88;;;32.00;;
23472;SDS011;11909;52.516;13.564;2022-11-15T02:54:27;50.60;;;30.33;;
23472;SDS011;11909;52.516;13.564;2022-11-15T02:56:57;49.60;;;32.73;;
23472;SDS011;11909;52.516;13.564;2022-11-15T03:02:29;48.03;;;30.48;;
23472;SDS011;11909;52.516;13.564;2022-11-15T03:05:08;52.25;;;31.80;;
23472;SDS011;11909;52.516;13.564;2022-11-15T03:07:44;44.30;;;28.95;;
23472;SDS011;11909;52.516;13.564;2022-11-15T03:10:20;48.25;;;30.25;;
23472;SDS011;11909;52.516;13.564;2022-11-15T03:12:54;50.33;;;31.00;;
23472;SDS011;11909;52.516;13.564;2022-11-15T03:15:25;47.80;;;29.85;;
23472;SDS011;11909;52.516;13.564;2022-11-15T03:17:57;49.00;;;30.50;;
23472;SDS011;11909;52.516;13.564;2022-11-15T03:20:28;47.58;;;30.38;;
23472;SDS011;11909;52.516;13.564;2022-11-15T03:22:56;42.95;;;29.10;;
23472;SDS011;11909;52.516;13.564;2022-11-15T03:25:27;53.10;;;30.35;;
23472;SDS011;11909;52.516;13.564;2022-11-15T03:27:57;48.67;;;30.23;;
23472;SDS011;11909;52.516;13.564;2022-11-15T03:30:27;52.17;;;30.95;;
23472;SDS011;11909;52.516;13.564;2022-11-15T03:32:57;42.88;;;29.23;;
23472;SDS011;11909;52.516;13.564;2022-11-15T03:35:27;48.43;;;30.90;;
23472;SDS011;11909;52.516;13.564;2022-11-15T03:40:27;50.13;;;30.15;;
23472;SDS011;11909;52.516;13.564;2022-11-15T03:43:00;46.70;;;29.15;;
23472;SDS011;11909;52.516;13.564;2022-11-15T03:45:32;51.53;;;32.05;;
23472;SDS011;11909;52.516;13.564;2022-11-15T03:48:09;49.00;;;31.15;;
23472;SDS011;11909;52.516;13.564;2022-11-15T03:50:39;47.13;;;30.30;;
23472;SDS011;11909;52.516;13.564;2022-11-15T03:53:07;45.90;;;30.20;;
23472;SDS011;11909;52.516;13.564;2022-11-15T03:55:34;49.72;;;30.45;;
23472;SDS011;11909;52.516;13.564;2022-11-15T03:58:01;45.28;;;30.45;;
23472;SDS011;11909;52.516;13.564;2022-11-15T04:00:27;50.33;;;30.75;;
23472;SDS011;11909;52.516;13.564;2022-11-15T04:02:54;47.50;;;31.30;;
23472;SDS011;11909;52.516;13.564;2022-11-15T04:05:22;53.25;;;31.70;;
23472;SDS011;11909;52.516;13.564;2022-11-15T04:07:49;47.88;;;30.55;;
23472;SDS011;11909;52.516;13.564;2022-11-15T04:10:16;50.35;;;31.60;;
23472;SDS011;11909;52.516;13.564;2022-11-15T04:12:43;46.45;;;30.10;;
23472;SDS011;11909;52.516;13.564;2022-11-15T04:15:12;48.83;;;31.08;;
23472;SDS011;11909;52.516;13.564;2022-11-15T04:17:42;49.55;;;30.92;;
23472;SDS011;11909;52.516;13.564;2022-11-15T04:20:11;51.13;;;30.58;;
23472;SDS011;11909;52.516;13.564;2022-11-15T04:23:00;54.25;;;31.27;;
23472;SDS011;11909;52.516;13.564;2022-11-15T04:25:46;47.83;;;30.88;;
23472;SDS011;11909;52.516;13.564;2022-11-15T04:28:15;47.70;;;30.20;;
23472;SDS011;11909;52.516;13.564;2022-11-15T04:30:42;47.33;;;29.60;;
23472;SDS011;11909;52.516;13.564;2022-11-15T04:33:09;49.90;;;30.48;;
23472;SDS011;11909;52.516;13.564;2022-11-15T04:35:35;51.72;;;32.08;;
23472;SDS011;11909;52.516;13.564;2022-11-15T04:38:04;46.60;;;30.38;;
23472;SDS011;11909;52.516;13.564;2022-11-15T04:40:31;49.50;;;32.05;;
23472;SDS011;11909;52.516;13.564;2022-11-15T04:42:58;52.78;;;30.92;;
23472;SDS011;11909;52.516;13.564;2022-11-15T04:45:24;49.50;;;32.60;;
23472;SDS011;11909;52.516;13.564;2022-11-15T04:47:51;53.65;;;32.17;;
23472;SDS011;11909;52.516;13.564;2022-11-15T04:50:18;48.75;;;30.70;;
23472;SDS011;11909;52.516;13.564;2022-11-15T04:52:49;49.65;;;30.48;;
23472;SDS011;11909;52.516;13.564;2022-11-15T04:55:18;50.47;;;32.30;;
23472;SDS011;11909;52.516;13.564;2022-11-15T04:57:45;55.60;;;32.33;;
23472;SDS011;11909;52.516;13.564;2022-11-15T05:00:12;49.40;;;31.85;;
23472;SDS011;11909;52.516;13.564;2022-11-15T05:02:41;49.30;;;31.40;;
23472;SDS011;11909;52.516;13.564;2022-11-15T05:05:24;52.42;;;31.85;;
23472;SDS011;11909;52.516;13.564;2022-11-15T05:07:51;51.28;;;32.28;;
23472;SDS011;11909;52.516;13.564;2022-11-15T05:10:19;47.30;;;31.55;;
23472;SDS011;11909;52.516;13.564;2022-11-15T05:12:46;45.65;;;30.50;;
23472;SDS011;11909;52.516;13.564;2022-11-15T05:15:13;49.55;;;32.08;;
23472;SDS011;11909;52.516;13.564;2022-11-15T05:17:39;44.65;;;31.05;;
23472;SDS011;11909;52.516;13.564;2022-11-15T05:20:06;48.65;;;30.98;;
23472;SDS011;11909;52.516;13.564;2022-11-15T05:22:33;49.17;;;31.33;;
23472;SDS011;11909;52.516;13.564;2022-11-15T05:25:00;55.08;;;32.30;;
23472;SDS011;11909;52.516;13.564;2022-11-15T05:27:28;48.35;;;31.95;;
23472;SDS011;11909;52.516;13.564;2022-11-15T05:29:54;49.05;;;31.67;;
23472;SDS011;11909;52.516;13.564;2022-11-15T05:32:21;48.65;;;31.80;;
23472;SDS011;11909;52.516;13.564;2022-11-15T05:34:48;44.90;;;28.65;;
23472;SDS011;11909;52.516;13.564;2022-11-15T05:37:15;44.90;;;29.02;;
23472;SDS011;11909;52.516;13.564;2022-11-15T05:39:42;47.97;;;30.88;;
23472;SDS011;11909;52.516;13.564;2022-11-15T05:42:09;43.03;;;29.63;;
23472;SDS011;11909;52.516;13.564;2022-11-15T05:44:39;46.42;;;30.80;;
23472;SDS011;11909;52.516;13.564;2022-11-15T05:47:08;49.97;;;31.38;;
23472;SDS011;11909;52.516;13.564;2022-11-15T05:49:38;50.85;;;31.58;;
23472;SDS011;11909;52.516;13.564;2022-11-15T05:52:08;49.53;;;33.00;;
23472;SDS011;11909;52.516;13.564;2022-11-15T05:54:37;46.25;;;30.60;;
23472;SDS011;11909;52.516;13.564;2022-11-15T05:57:04;47.95;;;30.90;;
23472;SDS011;11909;52.516;13.564;2022-11-15T05:59:32;48.33;;;30.90;;
23472;SDS011;11909;52.516;13.564;2022-11-15T06:02:02;48.83;;;31.77;;
23472;SDS011;11909;52.516;13.564;2022-11-15T06:04:28;45.13;;;28.95;;
23472;SDS011;11909;52.516;13.564;2022-11-15T06:06:55;41.63;;;28.67;;
23472;SDS011;11909;52.516;13.564;2022-11-15T06:09:21;46.38;;;29.08;;
23472;SDS011;11909;52.516;13.564;2022-11-15T06:11:48;50.90;;;30.42;;
23472;SDS011;11909;52.516;13.564;2022-11-15T06:14:14;48.45;;;29.65;;
23472;SDS011;11909;52.516;13.564;2022-11-15T06:16:41;46.38;;;29.35;;
23472;SDS011;11909;52.516;13.564;2022-11-15T06:19:09;41.03;;;28.63;;
23472;SDS011;11909;52.516;13.564;2022-11-15T06:21:35;53.33;;;30.35;;
23472;SDS011;11909;52.516;13.564;2022-11-15T06:24:02;47.50;;;30.70;;
23472;SDS011;11909;52.516;13.564;2022-11-15T06:26:29;49.28;;;31.15;;
23472;SDS011;11909;52.516;13.564;2022-11-15T06:28:56;48.25;;;30.25;;
23472;SDS011;11909;52.516;13.564;2022-11-15T06:31:23;50.10;;;30.95;;
23472;SDS011;11909;52.516;13.564;2022-11-15T06:33:49;45.55;;;29.67;;
23472;SDS011;11909;52.516;13.564;2022-11-15T06:36:17;47.92;;;30.50;;
23472;SDS011;11909;52.516;13.564;2022-11-15T06:38:44;44.72;;;29.90;;
23472;SDS011;11909;52.516;13.564;2022-11-15T06:41:11;48.17;;;30.42;;
23472;SDS011;11909;52.516;13.564;2022-11-15T06:43:39;44.60;;;30.48;;
23472;SDS011;11909;52.516;13.564;2022-11-15T06:46:06;46.45;;;29.90;;
23472;SDS011;11909;52.516;13.564;2022-11-15T06:48:33;49.05;;;31.95;;
23472;SDS011;11909;52.516;13.564;2022-11-15T06:51:01;47.72;;;30.73;;
23472;SDS011;11909;52.516;13.564;2022-11-15T06:53:30;46.60;;;30.85;;
23472;SDS011;11909;52.516;13.564;2022-11-15T06:55:58;53.97;;;32.90;;
23472;SDS011;11909;52.516;13.564;2022-11-15T06:58:25;41.92;;;28.30;;
23472;SDS011;11909;52.516;13.564;2022-11-15T07:00:52;51.30;;;30.85;;
23472;SDS011;11909;52.516;13.564;2022-11-15T07:03:19;52.38;;;31.88;;
23472;SDS011;11909;52.516;13.564;2022-11-15T07:05:50;46.35;;;30.52;;
23472;SDS011;11909;52.516;13.564;2022-11-15T07:08:18;51.25;;;31.45;;
23472;SDS011;11909;52.516;13.564;2022-11-15T07:10:46;44.55;;;28.25;;
23472;SDS011;11909;52.516;13.564;2022-11-15T07:13:13;47.63;;;30.13;;
23472;SDS011;11909;52.516;13.564;2022-11-15T07:15:39;48.05;;;30.45;;
23472;SDS011;11909;52.516;13.564;2022-11-15T07:18:06;47.90;;;30.83;;
23472;SDS011;11909;52.516;13.564;2022-11-15T07:20:32;48.65;;;32.35;;
23472;SDS011;11909;52.516;13.564;2022-11-15T07:22:59;46.92;;;30.42;;
23472;SDS011;11909;52.516;13.564;2022-11-15T07:25:27;48.08;;;29.80;;
23472;SDS011;11909;52.516;13.564;2022-11-15T07:27:55;55.83;;;31.83;;
23472;SDS011;11909;52.516;13.564;2022-11-15T07:30:22;46.47;;;30.63;;
23472;SDS011;11909;52.516;13.564;2022-11-15T07:32:51;48.65;;;31.30;;
23472;SDS011;11909;52.516;13.564;2022-11-15T07:35:18;45.30;;;29.77;;
23472;SDS011;11909;52.516;13.564;2022-11-15T07:37:52;45.95;;;29.98;;
23472;SDS011;11909;52.516;13.564;2022-11-15T07:40:19;50.53;;;31.83;;
23472;SDS011;11909;52.516;13.564;2022-11-15T07:42:46;54.13;;;32.17;;
23472;SDS011;11909;52.516;13.564;2022-11-15T07:45:20;52.33;;;32.53;;
23472;SDS011;11909;52.516;13.564;2022-11-15T07:47:47;53.33;;;31.88;;
23472;SDS011;11909;52.516;13.564;2022-11-15T07:50:14;51.42;;;33.53;;
23472;SDS011;11909;52.516;13.564;2022-11-15T07:52:41;54.15;;;33.05;;
23472;SDS011;11909;52.516;13.564;2022-11-15T07:55:07;45.45;;;28.77;;
23472;SDS011;11909;52.516;13.564;2022-11-15T07:57:35;49.70;;;30.83;;
23472;SDS011;11909;52.516;13.564;2022-11-15T08:00:02;54.13;;;33.72;;
23472;SDS011;11909;52.516;13.564;2022-11-15T08:02:31;50.90;;;31.98;;
23472;SDS011;11909;52.516;13.564;2022-11-15T08:04:57;54.97;;;31.58;;
23472;SDS011;11909;52.516;13.564;2022-11-15T08:07:24;48.20;;;30.70;;
23472;SDS011;11909;52.516;13.564;2022-11-15T08:09:51;48.70;;;30.90;;
23472;SDS011;11909;52.516;13.564;2022-11-15T08:12:17;54.63;;;32.08;;
23472;SDS011;11909;52.516;13.564;2022-11-15T08:14:45;48.13;;;31.90;;
23472;SDS011;11909;52.516;13.564;2022-11-15T08:17:11;50.63;;;32.75;;
23472;SDS011;11909;52.516;13.564;2022-11-15T08:19:39;53.75;;;32.58;;
23472;SDS011;11909;52.516;13.564;2022-11-15T08:22:06;57.05;;;34.58;;
23472;SDS011;11909;52.516;13.564;2022-11-15T08:24:33;53.03;;;32.58;;
23472;SDS011;11909;52.516;13.564;2022-11-15T08:26:59;49.47;;;32.67;;
23472;SDS011;11909;52.516;13.564;2022-11-15T08:29:26;48.88;;;31.63;;
23472;SDS011;11909;52.516;13.564;2022-11-15T08:31:54;46.53;;;31.60;;
23472;SDS011;11909;52.516;13.564;2022-11-15T08:34:20;47.55;;;31.48;;
23472;SDS011;11909;52.516;13.564;2022-11-15T08:36:48;49.35;;;32.20;;
23472;SDS011;11909;52.516;13.564;2022-11-15T08:39:15;47.65;;;31.23;;
23472;SDS011;11909;52.516;13.564;2022-11-15T08:41:41;46.25;;;30.38;;
23472;SDS011;11909;52.516;13.564;2022-11-15T08:44:09;48.60;;;31.02;;
23472;SDS011;11909;52.516;13.564;2022-11-15T08:46:36;70.07;;;42.20;;
23472;SDS011;11909;52.516;13.564;2022-11-15T08:49:02;57.92;;;37.00;;
23472;SDS011;11909;52.516;13.564;2022-11-15T08:51:29;53.17;;;32.67;;
23472;SDS011;11909;52.516;13.564;2022-11-15T08:53:57;51.42;;;32.85;;
23472;SDS011;11909;52.516;13.564;2022-11-15T08:56:24;47.15;;;30.77;;
23472;SDS011;11909;52.516;13.564;2022-11-15T08:58:50;53.78;;;33.10;;
23472;SDS011;11909;52.516;13.564;2022-11-15T09:01:17;49.35;;;30.98;;
23472;SDS011;11909;52.516;13.564;2022-11-15T09:03:45;45.13;;;30.63;;
23472;SDS011;11909;52.516;13.564;2022-11-15T09:06:12;42.63;;;30.30;;
23472;SDS011;11909;52.516;13.564;2022-11-15T09:08:40;48.30;;;31.48;;
23472;SDS011;11909;52.516;13.564;2022-11-15T09:11:09;50.25;;;33.08;;
23472;SDS011;11909;52.516;13.564;2022-11-15T09:13:37;52.47;;;33.08;;
23472;SDS011;11909;52.516;13.564;2022-11-15T09:16:04;49.67;;;32.50;;
23472;SDS011;11909;52.516;13.564;2022-11-15T09:18:31;51.75;;;32.15;;
23472;SDS011;11909;52.516;13.564;2022-11-15T09:20:58;43.25;;;30.48;;
23472;SDS011;11909;52.516;13.564;2022-11-15T09:23:27;48.10;;;31.38;;
23472;SDS011;11909;52.516;13.564;2022-11-15T09:25:58;52.75;;;33.28;;
23472;SDS011;11909;52.516;13.564;2022-11-15T09:28:27;45.78;;;30.58;;
23472;SDS011;11909;52.516;13.564;2022-11-15T09:30:55;51.35;;;31.33;;
23472;SDS011;11909;52.516;13.564;2022-11-15T09:33:23;45.88;;;30.23;;
23472;SDS011;11909;52.516;13.564;2022-11-15T09:35:50;48.30;;;30.60;;
23472;SDS011;11909;52.516;13.564;2022-11-15T09:38:17;43.72;;;29.88;;
23472;SDS011;11909;52.516;13.564;2022-11-15T09:40:43;102.28;;;54.90;;
23472;SDS011;11909;52.516;13.564;2022-11-15T09:43:23;51.05;;;33.85;;
23472;SDS011;11909;52.516;13.564;2022-11-15T09:46:01;44.65;;;29.25;;
23472;SDS011;11909;52.516;13.564;2022-11-15T09:48:48;41.70;;;28.52;;
23472;SDS011;11909;52.516;13.564;2022-11-15T09:51:20;44.75;;;30.70;;
23472;SDS011;11909;52.516;13.564;2022-11-15T09:53:54;41.75;;;28.08;;
23472;SDS011;11909;52.516;13.564;2022-11-15T09:56:26;44.42;;;28.55;;
23472;SDS011;11909;52.516;13.564;2022-11-15T09:58:59;43.22;;;28.63;;
23472;SDS011;11909;52.516;13.564;2022-11-15T10:01:36;40.25;;;27.98;;
23472;SDS011;11909;52.516;13.564;2022-11-15T10:04:10;39.55;;;27.73;;
23472;SDS011;11909;52.516;13.564;2022-11-15T10:06:38;43.08;;;28.55;;
23472;SDS011;11909;52.516;13.564;2022-11-15T10:09:12;44.05;;;27.77;;
23472;SDS011;11909;52.516;13.564;2022-11-15T10:11:41;38.20;;;26.42;;
23472;SDS011;11909;52.516;13.564;2022-11-15T10:14:11;37.47;;;25.98;;
23472;SDS011;11909;52.516;13.564;2022-11-15T10:16:49;35.08;;;25.60;;
23472;SDS011;11909;52.516;13.564;2022-11-15T10:19:39;36.78;;;24.42;;
23472;SDS011;11909;52.516;13.564;2022-11-15T10:22:18;36.55;;;25.55;;
23472;SDS011;11909;52.516;13.564;2022-11-15T10:24:52;38.58;;;24.90;;
23472;SDS011;11909;52.516;13.564;2022-11-15T10:27:36;33.05;;;24.10;;
23472;SDS011;11909;52.516;13.564;2022-11-15T10:30:06;49.22;;;32.05;;
23472;SDS011;11909;52.516;13.564;2022-11-15T10:32:37;64.85;;;40.85;;
23472;SDS011;11909;52.516;13.564;2022-11-15T10:35:15;39.63;;;25.33;;
23472;SDS011;11909;52.516;13.564;2022-11-15T10:37:44;32.80;;;22.27;;
23472;SDS011;11909;52.516;13.564;2022-11-15T10:40:15;28.67;;;21.27;;
23472;SDS011;11909;52.516;13.564;2022-11-15T10:42:44;31.75;;;21.13;;
23472;SDS011;11909;52.516;13.564;2022-11-15T10:48:14;39.45;;;26.50;;
23472;SDS011;11909;52.516;13.564;2022-11-15T10:50:50;30.75;;;21.05;;
23472;SDS011;11909;52.516;13.564;2022-11-15T10:53:19;27.95;;;20.58;;
23472;SDS011;11909;52.516;13.564;2022-11-15T10:55:50;29.67;;;20.75;;
23472;SDS011;11909;52.516;13.564;2022-11-15T10:58:20;27.23;;;19.52;;
23472;SDS011;11909;52.516;13.564;2022-11-15T11:00:53;26.73;;;19.30;;
23472;SDS011;11909;52.516;13.564;2022-11-15T11:03:24;28.70;;;20.00;;
23472;SDS011;11909;52.516;13.564;2022-11-15T11:06:03;31.52;;;20.50;;
23472;SDS011;11909;52.516;13.564;2022-11-15T11:08:31;26.58;;;18.38;;
23472;SDS011;11909;52.516;13.564;2022-11-15T11:10:59;28.27;;;19.27;;
23472;SDS011;11909;52.516;13.564;2022-11-15T11:13:27;27.17;;;19.58;;
23472;SDS011;11909;52.516;13.564;2022-11-15T11:15:58;48.33;;;30.58;;
23472;SDS011;11909;52.516;13.564;2022-11-15T11:18:37;29.65;;;19.80;;
23472;SDS011;11909;52.516;13.564;2022-11-15T11:21:09;26.90;;;18.95;;
23472;SDS011;11909;52.516;13.564;2022-11-15T11:23:43;24.85;;;17.80;;
23472;SDS011;11909;52.516;13.564;2022-11-15T11:26:27;26.63;;;18.45;;
23472;SDS011;11909;52.516;13.564;2022-11-15T11:29:02;24.23;;;17.77;;
23472;SDS011;11909;52.516;13.564;2022-11-15T11:31:42;25.58;;;18.25;;
23472;SDS011;11909;52.516;13.564;2022-11-15T11:34:19;25.48;;;17.45;;
23472;SDS011;11909;52.516;13.564;2022-11-15T11:37:01;28.63;;;17.90;;
23472;SDS011;11909;52.516;13.564;2022-11-15T11:39:36;25.33;;;18.52;;
23472;SDS011;11909;52.516;13.564;2022-11-15T11:42:10;22.70;;;16.50;;
23472;SDS011;11909;52.516;13.564;2022-11-15T11:44:46;26.40;;;17.30;;
23472;SDS011;11909;52.516;13.564;2022-11-15T11:47:23;24.92;;;16.38;;
23472;SDS011;11909;52.516;13.564;2022-11-15T11:49:56;20.77;;;15.52;;
23472;SDS011;11909;52.516;13.564;2022-11-15T11:52:28;33.30;;;21.60;;
23472;SDS011;11909;52.516;13.564;2022-11-15T11:55:01;26.35;;;18.45;;
23472;SDS011;11909;52.516;13.564;2022-11-15T11:57:34;22.13;;;16.55;;
23472;SDS011;11909;52.516;13.564;2022-11-15T12:00:13;23.60;;;16.17;;
23472;SDS011;11909;52.516;13.564;2022-11-15T12:02:47;20.48;;;15.35;;
23472;SDS011;11909;52.516;13.564;2022-11-15T12:05:22;24.42;;;15.85;;
23472;SDS011;11909;52.516;13.564;2022-11-15T12:07:57;22.02;;;14.57;;
23472;SDS011;11909;52.516;13.564;2022-11-15T12:10:29;24.23;;;16.15;;
23472;SDS011;11909;52.516;13.564;2022-11-15T12:13:01;26.98;;;18.92;;
23472;SDS011;11909;52.516;13.564;2022-11-15T12:15:32;24.00;;;15.93;;
23472;SDS011;11909;52.516;13.564;2022-11-15T12:18:04;19.05;;;13.30;;
23472;SDS011;11909;52.516;13.564;2022-11-15T12:20:35;21.75;;;13.73;;
23472;SDS011;11909;52.516;13.564;2022-11-15T12:23:07;59.63;;;36.75;;
23472;SDS011;11909;52.516;13.564;2022-11-15T12:25:41;34.50;;;21.98;;
23472;SDS011;11909;52.516;13.564;2022-11-15T12:28:14;19.35;;;13.55;;
23472;SDS011;11909;52.516;13.564;2022-11-15T12:30:44;22.63;;;13.23;;
23472;SDS011;11909;52.516;13.564;2022-11-15T12:33:32;18.52;;;13.25;;
23472;SDS011;11909;52.516;13.564;2022-11-15T12:36:02;17.58;;;13.20;;
23472;SDS011;11909;52.516;13.564;2022-11-15T12:41:20;17.77;;;12.35;;
23472;SDS011;11909;52.516;13.564;2022-11-15T12:43:48;18.48;;;14.07;;
23472;SDS011;11909;52.516;13.564;2022-11-15T12:52:11;20.98;;;12.90;;
23472;SDS011;11909;52.516;13.564;2022-11-15T12:57:49;21.15;;;14.18;;
23472;SDS011;11909;52.516;13.564;2022-11-15T13:06:00;17.05;;;13.02;;
23472;SDS011;11909;52.516;13.564;2022-11-15T13:17:22;21.13;;;14.27;;
23472;SDS011;11909;52.516;13.564;2022-11-15T13:19:57;19.90;;;13.43;;
23472;SDS011;11909;52.516;13.564;2022-11-15T13:22:41;19.92;;;13.65;;
23472;SDS011;11909;52.516;13.564;2022-11-15T13:28:29;16.67;;;13.05;;
23472;SDS011;11909;52.516;13.564;2022-11-15T13:30:59;18.20;;;12.48;;
23472;SDS011;11909;52.516;13.564;2022-11-15T13:33:29;17.00;;;12.15;;
23472;SDS011;11909;52.516;13.564;2022-11-15T13:35:59;18.48;;;12.55;;
23472;SDS011;11909;52.516;13.564;2022-11-15T13:38:30;18.08;;;12.43;;
23472;SDS011;11909;52.516;13.564;2022-11-15T13:40:59;17.38;;;12.15;;
23472;SDS011;11909;52.516;13.564;2022-11-15T13:43:36;16.55;;;12.50;;
23472;SDS011;11909;52.516;13.564;2022-11-15T13:46:06;20.73;;;12.38;;
23472;SDS011;11909;52.516;13.564;2022-11-15T13:48:36;14.88;;;12.07;;
23472;SDS011;11909;52.516;13.564;2022-11-15T13:51:05;16.77;;;11.80;;
23472;SDS011;11909;52.516;13.564;2022-11-15T13:53:38;17.83;;;13.15;;
23472;SDS011;11909;52.516;13.564;2022-11-15T13:56:08;15.48;;;11.98;;
23472;SDS011;11909;52.516;13.564;2022-11-15T13:58:36;20.80;;;12.88;;
23472;SDS011;11909;52.516;13.564;2022-11-15T14:01:04;15.48;;;11.93;;
23472;SDS011;11909;52.516;13.564;2022-11-15T14:03:32;16.08;;;12.32;;
23472;SDS011;11909;52.516;13.564;2022-11-15T14:06:04;16.30;;;12.13;;
23472;SDS011;11909;52.516;13.564;2022-11-15T14:08:32;16.17;;;12.82;;
23472;SDS011;11909;52.516;13.564;2022-11-15T14:11:09;16.00;;;12.35;;
23472;SDS011;11909;52.516;13.564;2022-11-15T14:13:39;22.65;;;15.75;;
23472;SDS011;11909;52.516;13.564;2022-11-15T14:16:13;24.05;;;16.88;;
23472;SDS011;11909;52.516;13.564;2022-11-15T14:18:43;21.98;;;14.20;;
23472;SDS011;11909;52.516;13.564;2022-11-15T14:21:11;18.38;;;13.32;;
23472;SDS011;11909;52.516;13.564;2022-11-15T14:23:38;17.85;;;13.20;;
23472;SDS011;11909;52.516;13.564;2022-11-15T14:26:05;17.17;;;13.32;;
23472;SDS011;11909;52.516;13.564;2022-11-15T14:28:33;19.00;;;14.05;;
23472;SDS011;11909;52.516;13.564;2022-11-15T14:31:06;16.48;;;12.85;;
23472;SDS011;11909;52.516;13.564;2022-11-15T14:33:38;16.15;;;13.40;;
23472;SDS011;11909;52.516;13.564;2022-11-15T14:36:06;20.52;;;13.40;;
23472;SDS011;11909;52.516;13.564;2022-11-15T14:38:38;17.70;;;13.25;;
23472;SDS011;11909;52.516;13.564;2022-11-15T14:41:05;20.42;;;13.00;;
23472;SDS011;11909;52.516;13.564;2022-11-15T14:43:37;16.63;;;12.15;;
23472;SDS011;11909;52.516;13.564;2022-11-15T14:46:04;17.55;;;12.75;;
23472;SDS011;11909;52.516;13.564;2022-11-15T14:48:31;18.30;;;13.88;;
23472;SDS011;11909;52.516;13.564;2022-11-15T14:50:57;18.48;;;13.32;;
23472;SDS011;11909;52.516;13.564;2022-11-15T14:53:24;18.90;;;13.70;;
23472;SDS011;11909;52.516;13.564;2022-11-15T14:55:50;17.42;;;13.85;;
23472;SDS011;11909;52.516;13.564;2022-11-15T14:58:17;19.92;;;15.02;;
23472;SDS011;11909;52.516;13.564;2022-11-15T15:00:45;18.13;;;14.05;;
23472;SDS011;11909;52.516;13.564;2022-11-15T15:03:11;17.75;;;13.65;;
23472;SDS011;11909;52.516;13.564;2022-11-15T15:05:39;19.38;;;13.90;;